createdAt,value
2022-12-20T00:02:01.710Z,101119.08
2022-12-20T00:07:07.230Z,101122.55
2022-12-20T00:12:12.745Z,101132.20
2022-12-20T00:17:18.255Z,101118.74
2022-12-20T00:22:23.748Z,101131.42
2022-12-20T00:27:30.037Z,101122.27
2022-12-20T00:32:35.533Z,101111.02
2022-12-20T00:37:41.035Z,101105.44
2022-12-20T00:42:46.497Z,101089.11
2022-12-20T00:47:51.891Z,101082.67
2022-12-20T00:52:57.455Z,101081.61
2022-12-20T00:58:02.848Z,101078.59
2022-12-20T01:03:09.038Z,101095.62
2022-12-20T01:08:14.699Z,101101.13
2022-12-20T01:13:20.096Z,101093.38
2022-12-20T01:18:25.503Z,101093.67
2022-12-20T01:23:31.324Z,101101.87
2022-12-20T01:28:38.165Z,101099.45
2022-12-20T01:33:44.248Z,101094.66
2022-12-20T01:38:50.202Z,101080.38
2022-12-20T01:43:58.829Z,101086.19
2022-12-20T01:49:11.010Z,101089.84
2022-12-20T01:54:19.633Z,101068.13
2022-12-20T01:59:28.257Z,101060.77
2022-12-20T02:04:33.753Z,101029.47
2022-12-20T02:09:40.392Z,101049.32
2022-12-20T02:15:08.315Z,101044.30
2022-12-20T02:20:31.244Z,101044.98
2022-12-20T02:25:49.164Z,101048.65
2022-12-20T02:30:56.882Z,101047.33
2022-12-20T02:36:05.229Z,101053.17
2022-12-20T02:41:22.916Z,101041.19
2022-12-20T02:46:29.139Z,101052.62
2022-12-20T02:51:35.841Z,101042.37
2022-12-20T02:56:44.509Z,101038.08
2022-12-20T03:01:53.334Z,101044.84
2022-12-20T03:07:02.398Z,101046.17
2022-12-20T03:12:09.672Z,101053.30
2022-12-20T03:17:15.463Z,101048.64
2022-12-20T03:22:21.141Z,101038.84
2022-12-20T03:27:28.234Z,101046.25
2022-12-20T03:32:34.362Z,101041.09
2022-12-20T03:37:40.458Z,101049.73
2022-12-20T03:42:46.229Z,101049.51
2022-12-20T03:47:51.632Z,101036.65
2022-12-20T03:52:58.049Z,101024.42
2022-12-20T03:58:04.049Z,101026.03
2022-12-20T04:03:11.542Z,101022.27
2022-12-20T04:08:17.370Z,101016.06
2022-12-20T04:13:24.466Z,101019.26
2022-12-20T04:18:30.355Z,101015.27
2022-12-20T04:23:38.563Z,101009.95
2022-12-20T04:28:44.747Z,101010.41
2022-12-20T04:33:50.772Z,101032.67
2022-12-20T04:38:57.841Z,101036.95
2022-12-20T04:44:03.585Z,101023.99
2022-12-20T04:49:10.653Z,101030.33
2022-12-20T04:54:17.721Z,101027.21
2022-12-20T04:59:28.568Z,101028.48
2022-12-20T05:04:37.840Z,101002.82
2022-12-20T05:09:43.607Z,101014.88
2022-12-20T05:14:49.407Z,101002.91
2022-12-20T05:19:56.675Z,101017.48
2022-12-20T05:25:20.236Z,101018.50
2022-12-20T05:30:27.510Z,101011.60
2022-12-20T05:35:33.547Z,101008.24
2022-12-20T05:40:41.844Z,101007.73
2022-12-20T05:45:51.623Z,101005.54
2022-12-20T05:50:58.918Z,101008.53
2022-12-20T05:56:06.605Z,101005.67
2022-12-20T06:01:13.832Z,101001.69
2022-12-20T06:06:19.406Z,101010.74
2022-12-20T06:11:29.827Z,101001.34
2022-12-20T06:16:37.071Z,101023.05
2022-12-20T06:21:43.752Z,101023.96
2022-12-20T06:26:51.104Z,101020.60
2022-12-20T06:31:57.391Z,101023.09
2022-12-20T06:37:04.755Z,101028.91
2022-12-20T06:42:11.914Z,101029.49
2022-12-20T06:47:18.813Z,101033.37
2022-12-20T06:52:26.071Z,101026.87
2022-12-20T06:57:33.368Z,101037.30
2022-12-20T07:02:39.808Z,101023.60
2022-12-20T07:07:45.739Z,101020.70
2022-12-20T07:12:53.048Z,101028.05
2022-12-20T07:17:58.559Z,101023.87
2022-12-20T07:23:04.544Z,101036.59
2022-12-20T07:28:10.017Z,101023.25
2022-12-20T07:33:15.414Z,101029.98
2022-12-20T07:38:20.931Z,101028.56
2022-12-20T07:43:26.624Z,101047.63
2022-12-20T07:48:33.072Z,101034.39
2022-12-20T07:53:41.521Z,101034.64
2022-12-20T07:58:47.617Z,101040.17
2022-12-20T08:03:55.742Z,101018.40
2022-12-20T08:09:04.610Z,101005.25
2022-12-20T08:14:11.457Z,101014.09
2022-12-20T08:19:16.920Z,101024.77
2022-12-20T08:24:22.382Z,101033.03
2022-12-20T08:29:27.918Z,101040.71
2022-12-20T08:34:33.934Z,101049.38
2022-12-20T08:39:39.338Z,101052.39
2022-12-20T08:44:44.822Z,101043.84
2022-12-20T08:49:50.221Z,101042.90
2022-12-20T08:54:55.677Z,101045.47
2022-12-20T09:00:01.546Z,101049.20
2022-12-20T09:05:07.570Z,101050.01
2022-12-20T09:10:14.849Z,101054.13
2022-12-20T09:15:20.323Z,101050.59
2022-12-20T09:20:27.258Z,101055.13
2022-12-20T09:25:34.216Z,101051.32
2022-12-20T09:30:39.769Z,101041.02
2022-12-20T09:35:48.833Z,101043.16
2022-12-20T09:40:57.614Z,101035.99
2022-12-20T09:46:05.191Z,101020.67
2022-12-20T09:51:16.435Z,101027.73
2022-12-20T09:56:28.035Z,101034.91
2022-12-20T10:01:39.864Z,101033.13
2022-12-20T10:07:14.575Z,101025.14
2022-12-20T10:12:23.150Z,101022.93
2022-12-20T10:17:53.133Z,101003.84
2022-12-20T10:23:07.843Z,101009.97
2022-12-20T10:28:16.299Z,100988.80
2022-12-20T10:33:25.567Z,100984.16
2022-12-20T10:38:34.096Z,100974.38
2022-12-20T10:43:45.822Z,100983.97
2022-12-20T10:48:51.905Z,100977.13
2022-12-20T10:54:03.405Z,100959.44
2022-12-20T10:59:21.373Z,100958.31
2022-12-20T11:04:35.862Z,100974.29
2022-12-20T11:09:44.532Z,100968.63
2022-12-20T11:14:50.463Z,100968.67
2022-12-20T11:20:21.827Z,100938.36
2022-12-20T11:25:44.974Z,100932.13
2022-12-20T11:31:05.547Z,100909.17
2022-12-20T11:36:26.388Z,100898.52
2022-12-20T11:41:43.619Z,100901.75
2022-12-20T11:46:52.458Z,100897.82
2022-12-20T11:52:13.074Z,100901.15
2022-12-20T11:57:21.543Z,100886.33
2022-12-20T12:02:38.702Z,100885.66
2022-12-20T12:07:47.405Z,100878.25
2022-12-20T12:13:14.159Z,100850.27
2022-12-20T12:18:25.205Z,100842.53
2022-12-20T12:23:53.413Z,100835.07
2022-12-20T12:29:04.377Z,100833.41
2022-12-20T12:34:28.123Z,100842.07
2022-12-20T12:39:54.274Z,100844.84
2022-12-20T12:45:03.161Z,100850.80
2022-12-20T12:50:20.537Z,100847.22
2022-12-20T12:55:47.059Z,100855.00
2022-12-20T13:01:08.364Z,100849.12
2022-12-20T13:06:29.181Z,100856.67
2022-12-20T13:11:41.460Z,100867.00
2022-12-20T13:17:11.522Z,100848.72
2022-12-20T13:22:17.879Z,100842.11
2022-12-20T13:27:27.192Z,100835.41
2022-12-20T13:33:11.726Z,100821.87
2022-12-20T13:38:41.355Z,100801.08
2022-12-20T13:43:48.967Z,100822.66
2022-12-20T13:48:57.059Z,100824.28
2022-12-20T13:54:05.690Z,100819.92
2022-12-20T13:59:23.346Z,100792.29
2022-12-20T14:04:31.501Z,100805.36
2022-12-20T14:09:39.060Z,100812.79
2022-12-20T14:14:46.717Z,100806.41
2022-12-20T14:20:10.545Z,100805.77
2022-12-20T14:25:18.982Z,100806.62
2022-12-20T14:30:33.585Z,100798.02
2022-12-20T14:35:40.555Z,100790.30
2022-12-20T14:40:52.088Z,100788.45
2022-12-20T14:46:11.616Z,100778.92
2022-12-20T14:51:22.979Z,100777.73
2022-12-20T14:56:32.208Z,100776.86
2022-12-20T15:01:40.094Z,100767.53
2022-12-20T15:06:48.232Z,100774.12
2022-12-20T15:11:54.370Z,100771.75
2022-12-20T15:16:59.879Z,100764.47
2022-12-20T15:22:05.748Z,100739.09
2022-12-20T15:27:14.426Z,100754.68
2022-12-20T15:32:23.517Z,100719.89
2022-12-20T15:37:29.065Z,100724.66
2022-12-20T15:42:35.553Z,100744.77
2022-12-20T15:47:41.171Z,100729.66
2022-12-20T15:52:46.718Z,100725.66
2022-12-20T15:57:52.184Z,100729.19
2022-12-20T16:02:59.707Z,100740.92
2022-12-20T16:08:05.998Z,100720.33
2022-12-20T16:13:21.050Z,100704.48
2022-12-20T16:18:24.613Z,100691.39
2022-12-20T16:23:30.795Z,100693.44
2022-12-20T16:28:36.177Z,100702.70
2022-12-20T16:33:42.118Z,100704.66
2022-12-20T16:38:47.658Z,100684.17
2022-12-20T16:43:53.509Z,100687.39
2022-12-20T16:49:01.072Z,100699.25
2022-12-20T16:54:19.384Z,100688.63
2022-12-20T16:59:20.678Z,100691.91
2022-12-20T17:04:27.005Z,100703.97
2022-12-20T17:09:32.633Z,100683.59
2022-12-20T17:14:38.247Z,100684.38
2022-12-20T17:19:43.722Z,100661.50
2022-12-20T17:24:49.262Z,100662.22
2022-12-20T17:29:54.840Z,100664.47
2022-12-20T17:35:00.345Z,100658.42
2022-12-20T17:40:06.956Z,100638.67
2022-12-20T17:45:25.660Z,100642.66
2022-12-20T17:50:31.206Z,100659.36
2022-12-20T17:55:36.944Z,100670.28
2022-12-20T18:00:42.499Z,100670.02
2022-12-20T18:05:48.027Z,100653.30
2022-12-20T18:10:53.631Z,100653.57
2022-12-20T18:15:59.169Z,100656.91
2022-12-20T18:21:10.305Z,100676.06
2022-12-20T18:26:24.765Z,100666.89
2022-12-20T18:31:34.026Z,100669.05
2022-12-20T18:36:40.920Z,100661.34
2022-12-20T18:41:47.777Z,100662.00
2022-12-20T18:46:53.883Z,100666.19
2022-12-20T18:52:00.969Z,100657.25
2022-12-20T18:57:06.606Z,100675.30
2022-12-20T19:02:15.243Z,100681.66
2022-12-20T19:07:20.690Z,100666.92
2022-12-20T19:12:26.299Z,100654.22
2022-12-20T19:17:31.846Z,100656.63
2022-12-20T19:22:37.724Z,100652.69
2022-12-20T19:27:43.333Z,100655.75
2022-12-20T19:32:49.143Z,100635.14
2022-12-20T19:37:54.557Z,100641.66
2022-12-20T19:43:00.699Z,100621.17
2022-12-20T19:48:06.927Z,100629.02
2022-12-20T19:53:12.527Z,100639.86
2022-12-20T19:58:18.130Z,100635.81
2022-12-20T20:03:24.517Z,100647.11
2022-12-20T20:08:30.076Z,100625.90
2022-12-20T20:13:35.787Z,100634.02
2022-12-20T20:18:41.793Z,100625.69
2022-12-20T20:23:47.803Z,100632.08
2022-12-20T20:28:54.124Z,100644.91
2022-12-20T20:34:00.862Z,100635.81
2022-12-20T20:39:06.741Z,100635.61
2022-12-20T20:44:13.657Z,100636.28
2022-12-20T20:49:19.900Z,100632.75
2022-12-20T20:54:25.459Z,100631.75
2022-12-20T20:59:30.942Z,100628.36
2022-12-20T21:04:36.463Z,100625.50
2022-12-20T21:09:41.954Z,100624.77
2022-12-20T21:15:20.529Z,100626.67
2022-12-20T21:19:55.138Z,100616.17
2022-12-20T21:25:00.698Z,100620.56
2022-12-20T21:30:07.064Z,100607.02
2022-12-20T21:35:12.697Z,100609.45
2022-12-20T21:40:18.529Z,100613.80
2022-12-20T21:45:24.168Z,100601.41
2022-12-20T21:50:29.589Z,100604.29
2022-12-20T21:55:35.300Z,100598.97
2022-12-20T22:00:40.893Z,100600.56
2022-12-20T22:05:51.801Z,100605.55
2022-12-20T22:11:05.359Z,100601.61
2022-12-20T22:16:16.945Z,100601.41
2022-12-20T22:21:26.065Z,100599.09
2022-12-20T22:26:33.680Z,100606.48
2022-12-20T22:31:39.461Z,100602.50
2022-12-20T22:36:45.047Z,100609.39
2022-12-20T22:41:50.581Z,100603.97
2022-12-20T22:46:56.089Z,100593.80
2022-12-20T22:52:07.432Z,100592.77
2022-12-20T22:57:10.606Z,100597.02
2022-12-20T23:02:16.336Z,100593.78
2022-12-20T23:07:23.273Z,100595.50
2022-12-20T23:12:46.646Z,100582.22
2022-12-20T23:17:52.206Z,100571.19
2022-12-20T23:22:57.690Z,100567.98
2022-12-20T23:28:03.403Z,100557.98
2022-12-20T23:33:08.785Z,100562.84
2022-12-20T23:38:14.267Z,100571.44
2022-12-20T23:43:19.914Z,100568.05
2022-12-20T23:48:25.483Z,100574.86
2022-12-20T23:53:31.184Z,100563.57
2022-12-20T23:58:37.645Z,100560.45
